Time;durP1;ratioP1;P1;durP2;ratioP2;P2;SDS_P1;SDS_P2;PMS_P1;PMS_P2;Temp;Humidity;BMP_temperature;BMP_pressure;BME280_temperature;BME280_humidity;BME280_pressure;Samples;Min_cycle;Max_cycle;Signal;HPM_P1;HPM_P2
2023/05/19 00:00:37;;;;;;;9.25;4.90;;;12.10;99.90;;;;;;5082842;28;20494;-63
2023/05/19 00:03:03;;;;;;;12.10;4.60;;;12.00;99.90;;;;;;5083168;28;20044;-62
2023/05/19 00:05:30;;;;;;;11.73;5.07;;;12.10;99.90;;;;;;5081887;28;20120;-61
2023/05/19 00:07:57;;;;;;;10.13;4.88;;;12.00;99.90;;;;;;5080617;28;20459;-62
2023/05/19 00:10:26;;;;;;;9.15;4.90;;;12.00;99.90;;;;;;5084458;28;20127;-63
2023/05/19 00:12:53;;;;;;;9.57;4.20;;;11.90;99.90;;;;;;5083924;28;20499;-64
2023/05/19 00:15:20;;;;;;;8.13;4.32;;;12.00;99.90;;;;;;5083680;28;20039;-64
2023/05/19 00:17:47;;;;;;;10.02;4.80;;;12.00;99.90;;;;;;5083920;28;20035;-63
2023/05/19 00:20:14;;;;;;;10.07;4.55;;;11.90;99.90;;;;;;5082900;28;20040;-63
2023/05/19 00:22:42;;;;;;;11.73;4.15;;;11.90;99.90;;;;;;5082629;28;20047;-63
2023/05/19 00:25:09;;;;;;;7.63;3.92;;;11.90;99.90;;;;;;5086420;28;20055;-63
2023/05/19 00:27:36;;;;;;;9.05;4.03;;;11.80;99.90;;;;;;5091295;28;20032;-63
2023/05/19 00:30:03;;;;;;;10.57;4.78;;;11.80;99.90;;;;;;5093856;28;20039;-62
2023/05/19 00:32:30;;;;;;;9.05;4.82;;;11.70;99.90;;;;;;5075659;28;20040;-62
2023/05/19 00:34:57;;;;;;;11.88;4.53;;;11.70;99.90;;;;;;5093833;28;20043;-63
2023/05/19 00:37:24;;;;;;;8.57;4.45;;;11.60;99.90;;;;;;5075262;28;20483;-63
2023/05/19 00:39:50;;;;;;;9.93;4.72;;;11.70;99.90;;;;;;5075336;28;20048;-62
2023/05/19 00:42:17;;;;;;;9.93;4.50;;;11.70;99.90;;;;;;5075119;28;20044;-63
2023/05/19 00:44:44;;;;;;;10.18;4.57;;;11.60;99.90;;;;;;5093805;28;20031;-62
2023/05/19 00:47:11;;;;;;;7.95;3.92;;;11.60;99.90;;;;;;5075377;28;20090;-62
2023/05/19 00:49:38;;;;;;;9.35;3.72;;;11.60;99.90;;;;;;5075512;28;20128;-62
2023/05/19 00:52:05;;;;;;;8.48;4.35;;;11.50;99.90;;;;;;5093330;28;20036;-63
2023/05/19 00:54:32;;;;;;;7.35;3.97;;;11.50;99.90;;;;;;5093686;28;20072;-62
2023/05/19 00:56:59;;;;;;;8.57;4.07;;;11.50;99.90;;;;;;5075514;28;20040;-62
2023/05/19 00:59:26;;;;;;;9.32;4.18;;;11.50;99.90;;;;;;5093540;28;20414;-63
2023/05/19 01:01:53;;;;;;;7.60;4.32;;;11.40;99.90;;;;;;5075351;28;20119;-62
2023/05/19 01:04:20;;;;;;;12.60;4.38;;;11.40;99.90;;;;;;5093031;28;20131;-62
2023/05/19 01:06:48;;;;;;;9.80;4.90;;;11.40;99.90;;;;;;5075099;28;20044;-62
2023/05/19 01:09:15;;;;;;;7.75;3.75;;;11.30;99.90;;;;;;5076076;28;20525;-62
2023/05/19 01:11:42;;;;;;;8.32;3.95;;;11.30;99.90;;;;;;5075157;28;20121;-63
2023/05/19 01:14:09;;;;;;;9.45;4.07;;;11.30;99.90;;;;;;5075369;28;20509;-62
2023/05/19 01:16:36;;;;;;;7.30;3.95;;;11.30;99.90;;;;;;5093667;28;20036;-63
2023/05/19 01:19:03;;;;;;;12.15;4.18;;;11.30;99.90;;;;;;5093554;28;20105;-63
2023/05/19 01:21:35;;;;;;;9.90;4.47;;;11.30;99.90;;;;;;5059471;28;20053;-63
2023/05/19 01:24:02;;;;;;;10.75;4.32;;;11.30;99.90;;;;;;5053274;28;20530;-63
2023/05/19 01:26:29;;;;;;;9.60;4.18;;;11.20;99.90;;;;;;5052926;28;20041;-63
2023/05/19 01:28:56;;;;;;;8.25;4.10;;;11.20;99.90;;;;;;5052817;28;20502;-62
2023/05/19 01:31:23;;;;;;;10.73;4.35;;;11.20;99.90;;;;;;5052346;28;20475;-63
2023/05/19 01:33:50;;;;;;;11.00;4.55;;;11.20;99.90;;;;;;5056636;28;20103;-62
2023/05/19 01:36:17;;;;;;;11.43;4.80;;;11.20;99.90;;;;;;5056677;28;20047;-62
2023/05/19 01:38:44;;;;;;;7.22;4.68;;;11.20;99.90;;;;;;5055168;28;20045;-63
2023/05/19 01:41:11;;;;;;;8.15;4.40;;;11.20;99.90;;;;;;5054828;28;20055;-63
2023/05/19 01:43:37;;;;;;;7.35;4.05;;;11.10;99.90;;;;;;5056809;28;20428;-63
2023/05/19 01:46:04;;;;;;;9.50;4.60;;;11.10;99.90;;;;;;5055396;28;20357;-63
2023/05/19 01:48:31;;;;;;;12.00;4.57;;;11.10;99.90;;;;;;5056231;28;20099;-62
2023/05/19 01:50:58;;;;;;;11.23;4.72;;;11.00;99.90;;;;;;5054780;28;20037;-62
2023/05/19 01:53:24;;;;;;;8.52;4.20;;;11.00;99.90;;;;;;5056429;28;20037;-63
2023/05/19 01:55:52;;;;;;;10.88;4.50;;;11.00;99.90;;;;;;5055317;28;20558;-63
2023/05/19 01:58:18;;;;;;;7.95;4.38;;;11.00;99.90;;;;;;5055289;28;20091;-63
2023/05/19 02:00:45;;;;;;;10.80;4.70;;;11.00;99.90;;;;;;5055368;28;20045;-63
2023/05/19 02:03:12;;;;;;;8.30;4.30;;;11.00;99.90;;;;;;5054926;28;20044;-64
2023/05/19 02:05:39;;;;;;;10.35;4.40;;;11.00;99.90;;;;;;5056249;28;20549;-62
2023/05/19 02:08:05;;;;;;;10.38;4.50;;;11.00;99.90;;;;;;5054653;28;20055;-63
2023/05/19 02:10:34;;;;;;;8.75;4.65;;;11.00;99.90;;;;;;5055686;28;20538;-63
2023/05/19 02:13:01;;;;;;;8.57;4.40;;;11.00;99.90;;;;;;5054600;28;20045;-63
2023/05/19 02:15:28;;;;;;;9.77;4.65;;;10.90;99.90;;;;;;5055919;28;20033;-63
2023/05/19 02:17:55;;;;;;;10.70;5.32;;;10.90;99.90;;;;;;5054424;28;20370;-63
2023/05/19 02:20:22;;;;;;;9.85;4.90;;;10.90;99.90;;;;;;5059288;28;20476;-63
2023/05/19 02:22:48;;;;;;;10.98;5.13;;;10.90;99.90;;;;;;5077916;28;20101;-63
2023/05/19 02:25:15;;;;;;;9.52;4.80;;;10.90;99.90;;;;;;5077489;28;20044;-63
2023/05/19 02:27:42;;;;;;;9.77;4.28;;;10.90;99.90;;;;;;5096310;28;20042;-63
2023/05/19 02:30:09;;;;;;;6.55;4.07;;;10.80;99.90;;;;;;5077504;28;20040;-63
2023/05/19 02:32:36;;;;;;;8.13;4.30;;;10.80;99.90;;;;;;5095758;28;20074;-63
2023/05/19 02:35:03;;;;;;;9.32;4.43;;;10.80;99.90;;;;;;5077797;28;20036;-63
2023/05/19 02:37:31;;;;;;;7.82;4.60;;;10.70;99.90;;;;;;5096098;28;20040;-63
2023/05/19 02:39:58;;;;;;;10.23;4.45;;;10.70;99.90;;;;;;5095930;28;20044;-63
2023/05/19 02:42:25;;;;;;;8.70;5.20;;;10.70;99.90;;;;;;5078078;28;20040;-63
2023/05/19 02:44:52;;;;;;;14.75;5.63;;;10.70;99.90;;;;;;5077448;28;20387;-63
2023/05/19 02:47:19;;;;;;;9.13;4.22;;;10.60;99.90;;;;;;5095359;28;20044;-63
2023/05/19 02:49:46;;;;;;;12.75;4.75;;;10.60;99.90;;;;;;5095776;28;20048;-64
2023/05/19 02:52:14;;;;;;;7.80;4.60;;;10.60;99.90;;;;;;5095303;28;20468;-63
2023/05/19 02:54:41;;;;;;;8.27;4.60;;;10.60;99.90;;;;;;5077496;28;20467;-62
2023/05/19 02:57:08;;;;;;;10.02;4.60;;;10.60;99.90;;;;;;5076994;28;20113;-63
2023/05/19 02:59:35;;;;;;;12.38;5.18;;;10.60;99.90;;;;;;5095591;28;20036;-64
2023/05/19 03:02:02;;;;;;;14.88;5.22;;;10.60;99.90;;;;;;5077127;28;20054;-63
2023/05/19 03:04:29;;;;;;;9.63;4.93;;;10.60;99.90;;;;;;5095450;28;20044;-63
2023/05/19 03:06:59;;;;;;;9.48;4.80;;;10.60;99.90;;;;;;5077471;28;20089;-63
2023/05/19 03:09:25;;;;;;;9.73;4.72;;;10.50;99.90;;;;;;5077168;28;20052;-63
2023/05/19 03:11:52;;;;;;;15.52;5.10;;;10.50;99.90;;;;;;5094671;28;20036;-63
2023/05/19 03:14:22;;;;;;;12.07;5.15;;;10.50;99.90;;;;;;5095340;28;20089;-62
2023/05/19 03:16:50;;;;;;;15.23;4.95;;;10.40;99.90;;;;;;5077120;28;20044;-63
2023/05/19 03:19:17;;;;;;;11.10;4.90;;;10.40;99.90;;;;;;5094774;28;20051;-63
2023/05/19 03:21:44;;;;;;;6.35;4.80;;;10.40;99.90;;;;;;5094406;28;20120;-62
2023/05/19 03:24:10;;;;;;;9.63;4.78;;;10.40;99.90;;;;;;5076752;28;20039;-62
2023/05/19 03:26:37;;;;;;;10.00;5.05;;;10.40;99.90;;;;;;5076499;28;20105;-63
2023/05/19 03:29:05;;;;;;;10.40;5.47;;;10.40;99.90;;;;;;5076686;28;20048;-63
2023/05/19 03:31:34;;;;;;;11.00;5.10;;;10.30;99.90;;;;;;5076545;28;20048;-63
2023/05/19 03:34:03;;;;;;;11.98;5.15;;;10.30;99.90;;;;;;5076294;28;20044;-63
2023/05/19 03:36:38;;;;;;;12.00;5.68;;;10.30;99.90;;;;;;5094965;28;20040;-62
2023/05/19 03:39:10;;;;;;;11.90;4.93;;;10.30;99.90;;;;;;5076497;28;20467;-63
2023/05/19 03:41:38;;;;;;;12.93;5.07;;;10.20;99.90;;;;;;5076320;28;20055;-63
2023/05/19 03:44:05;;;;;;;10.23;4.97;;;10.20;99.90;;;;;;5094449;28;20127;-63
2023/05/19 03:46:32;;;;;;;12.20;5.63;;;10.20;99.90;;;;;;5075955;28;20047;-63
2023/05/19 03:49:34;;;;;;;11.32;5.72;;;10.20;99.90;;;;;;4992599;28;20042;-63
2023/05/19 03:52:13;;;;;;;9.68;5.97;;;10.10;99.90;;;;;;5082101;28;20109;-63
2023/05/19 03:54:56;;;;;;;11.80;5.93;;;10.10;99.90;;;;;;5076096;28;20480;-62
2023/05/19 03:57:23;;;;;;;8.82;5.65;;;10.10;99.90;;;;;;5093933;28;20066;-63
2023/05/19 03:59:52;;;;;;;8.18;5.40;;;10.00;99.90;;;;;;5076426;28;20032;-62
2023/05/19 04:02:20;;;;;;;12.02;6.13;;;10.00;99.90;;;;;;5094345;28;20058;-63
2023/05/19 04:04:47;;;;;;;10.98;5.72;;;10.00;99.90;;;;;;5076051;28;20044;-63
2023/05/19 04:07:14;;;;;;;10.57;5.95;;;10.00;99.90;;;;;;5093926;28;20052;-63
2023/05/19 04:09:41;;;;;;;11.18;6.15;;;10.00;99.90;;;;;;5075668;28;20040;-62
2023/05/19 04:12:07;;;;;;;12.73;6.15;;;10.00;99.90;;;;;;5073938;28;20044;-62
2023/05/19 04:14:34;;;;;;;10.60;6.28;;;10.00;99.90;;;;;;5093594;28;20105;-63
2023/05/19 04:17:01;;;;;;;10.73;5.75;;;10.00;99.90;;;;;;5093429;28;20048;-62
2023/05/19 04:19:28;;;;;;;12.48;6.07;;;10.00;99.90;;;;;;5075359;28;20498;-62
2023/05/19 04:21:55;;;;;;;11.00;5.68;;;10.10;99.90;;;;;;5075491;28;20048;-62
2023/05/19 04:24:22;;;;;;;8.00;4.53;;;10.00;99.90;;;;;;5094010;28;20047;-62
2023/05/19 04:26:49;;;;;;;10.85;5.30;;;10.10;99.90;;;;;;5093796;28;20040;-62
2023/05/19 04:29:17;;;;;;;10.05;4.85;;;10.10;99.90;;;;;;5075941;28;20046;-62
2023/05/19 04:31:44;;;;;;;9.02;4.75;;;10.10;99.90;;;;;;5093779;28;20044;-62
2023/05/19 04:34:11;;;;;;;11.93;5.50;;;10.20;99.90;;;;;;5075852;28;20040;-62
2023/05/19 04:36:38;;;;;;;10.77;5.57;;;10.20;99.90;;;;;;5094193;28;20035;-63
2023/05/19 04:39:08;;;;;;;9.40;5.00;;;10.20;99.90;;;;;;5075661;28;20040;-63
2023/05/19 04:41:39;;;;;;;8.77;4.55;;;10.30;99.90;;;;;;5076263;28;20521;-63
2023/05/19 04:44:07;;;;;;;7.72;4.45;;;10.40;99.90;;;;;;5075873;28;20093;-63
2023/05/19 04:46:35;;;;;;;13.40;5.15;;;10.40;99.90;;;;;;5075669;28;20047;-62
2023/05/19 04:49:02;;;;;;;11.10;5.03;;;10.40;99.90;;;;;;5075754;28;20063;-63
2023/05/19 04:51:30;;;;;;;10.25;4.80;;;10.50;99.90;;;;;;5093427;28;20047;-63
2023/05/19 04:54:00;;;;;;;9.75;5.50;;;10.50;99.90;;;;;;5075249;28;20429;-62
2023/05/19 04:56:27;;;;;;;9.77;5.90;;;10.50;99.90;;;;;;5075283;28;20410;-62
2023/05/19 04:58:55;;;;;;;9.70;5.28;;;10.40;99.90;;;;;;5075332;28;20490;-63
2023/05/19 05:01:24;;;;;;;9.55;5.75;;;10.50;99.90;;;;;;5075251;28;20044;-62
2023/05/19 05:03:57;;;;;;;10.95;5.70;;;10.40;99.90;;;;;;5074964;28;20529;-62
2023/05/19 05:06:25;;;;;;;10.73;5.97;;;10.40;99.90;;;;;;5076832;28;20056;-63
2023/05/19 05:08:52;;;;;;;14.10;6.07;;;10.50;99.90;;;;;;5079218;28;20044;-63
2023/05/19 05:11:20;;;;;;;13.38;6.65;;;10.50;99.90;;;;;;5079396;28;20093;-63
2023/05/19 05:13:48;;;;;;;11.40;6.18;;;10.60;99.90;;;;;;5098246;28;20073;-63
2023/05/19 05:16:14;;;;;;;11.40;6.13;;;10.70;99.90;;;;;;5097930;28;20040;-63
2023/05/19 05:18:42;;;;;;;10.68;6.72;;;10.70;99.90;;;;;;5079130;28;20032;-63
2023/05/19 05:21:11;;;;;;;8.35;5.93;;;10.90;99.90;;;;;;5079018;28;20059;-62
2023/05/19 05:23:38;;;;;;;10.63;6.32;;;10.90;99.90;;;;;;5079090;28;20047;-63
2023/05/19 05:26:05;;;;;;;12.10;5.50;;;11.00;99.90;;;;;;5079517;28;20067;-62
2023/05/19 05:28:32;;;;;;;10.10;5.93;;;11.10;99.90;;;;;;5079644;28;20131;-63
2023/05/19 05:30:59;;;;;;;12.40;5.88;;;11.10;99.90;;;;;;5078847;28;20051;-62
2023/05/19 05:33:26;;;;;;;12.02;5.90;;;11.20;99.90;;;;;;5079236;28;20105;-62
2023/05/19 05:35:53;;;;;;;10.90;5.38;;;11.20;99.90;;;;;;5078772;28;20071;-63
2023/05/19 05:38:20;;;;;;;9.95;5.78;;;11.20;99.90;;;;;;5078806;28;20069;-62
2023/05/19 05:40:47;;;;;;;12.68;5.60;;;11.10;99.90;;;;;;5078575;28;20043;-63
2023/05/19 05:43:14;;;;;;;12.52;5.75;;;11.10;99.90;;;;;;5078450;28;20036;-62
2023/05/19 05:45:46;;;;;;;9.07;5.60;;;11.20;99.90;;;;;;5078340;28;20055;-63
2023/05/19 05:48:14;;;;;;;8.82;6.25;;;11.20;99.90;;;;;;5078739;28;20560;-62
2023/05/19 05:50:41;;;;;;;10.93;6.07;;;11.20;99.90;;;;;;5078544;28;20067;-63
2023/05/19 05:53:08;;;;;;;11.32;6.35;;;11.20;99.90;;;;;;5097010;28;20433;-63
2023/05/19 05:55:38;;;;;;;18.88;6.32;;;11.30;99.90;;;;;;5078984;28;20444;-63
2023/05/19 05:58:09;;;;;;;11.55;5.68;;;11.30;99.90;;;;;;5074601;28;20075;-63
2023/05/19 06:00:36;;;;;;;14.18;6.63;;;11.40;99.90;;;;;;5074134;28;20128;-63
2023/05/19 06:03:04;;;;;;;15.00;6.60;;;11.40;99.90;;;;;;5057714;28;20143;-63
2023/05/19 06:05:31;;;;;;;11.40;6.05;;;11.50;99.90;;;;;;5057399;28;20063;-62
2023/05/19 06:07:58;;;;;;;16.70;6.43;;;11.60;99.90;;;;;;5057677;28;20060;-62
2023/05/19 06:10:26;;;;;;;11.73;6.25;;;11.60;99.90;;;;;;5041174;28;20082;-62
2023/05/19 06:12:54;;;;;;;10.23;5.68;;;11.70;99.90;;;;;;5057373;28;20495;-63
2023/05/19 06:15:22;;;;;;;11.88;5.60;;;11.80;99.90;;;;;;5057383;28;20048;-62
2023/05/19 06:17:54;;;;;;;14.70;6.00;;;11.90;99.90;;;;;;5056772;28;20072;-62
2023/05/19 06:20:21;;;;;;;10.20;5.82;;;11.90;99.90;;;;;;5056840;28;20140;-63
2023/05/19 06:22:49;;;;;;;12.40;6.78;;;12.00;99.90;;;;;;5073770;28;20044;-62
2023/05/19 06:25:19;;;;;;;15.57;6.57;;;12.00;99.90;;;;;;5056695;28;20135;-62
2023/05/19 06:27:46;;;;;;;16.75;7.68;;;12.00;99.90;;;;;;5056979;28;20416;-62
2023/05/19 06:30:14;;;;;;;16.60;7.30;;;12.00;99.90;;;;;;5076876;28;20085;-62
2023/05/19 06:33:04;;;;;;;13.80;7.30;;;12.00;99.90;;;;;;5084949;28;20129;-62
2023/05/19 06:35:31;;;;;;;15.60;7.38;;;12.10;99.90;;;;;;5077871;28;20052;-62
2023/05/19 06:37:58;;;;;;;14.25;7.07;;;12.10;99.90;;;;;;5095771;28;20463;-62
2023/05/19 06:40:25;;;;;;;15.95;7.55;;;12.20;99.90;;;;;;5077395;28;20051;-62
2023/05/19 06:42:53;;;;;;;26.00;14.13;;;12.20;99.90;;;;;;5078086;28;20036;-63
2023/05/19 06:45:27;;;;;;;11.18;6.57;;;12.30;99.90;;;;;;5077718;28;20047;-62
2023/05/19 06:47:57;;;;;;;13.48;6.85;;;12.20;99.90;;;;;;5077545;28;20457;-62
2023/05/19 06:50:24;;;;;;;10.32;5.88;;;12.30;99.90;;;;;;5077177;28;20144;-64
2023/05/19 06:52:51;;;;;;;16.88;7.20;;;12.30;99.90;;;;;;5095706;28;20115;-63
2023/05/19 06:55:18;;;;;;;10.20;6.57;;;12.40;99.90;;;;;;5077629;28;20384;-63
2023/05/19 06:57:47;;;;;;;10.88;6.80;;;12.50;99.90;;;;;;5077489;28;20063;-62
2023/05/19 07:00:15;;;;;;;17.08;7.05;;;12.60;99.90;;;;;;5077069;28;20513;-63
2023/05/19 07:02:47;;;;;;;12.70;6.80;;;12.60;99.90;;;;;;5077592;28;20368;-61
2023/05/19 07:05:14;;;;;;;11.80;6.95;;;12.60;99.90;;;;;;5076949;28;20058;-61
2023/05/19 07:07:45;;;;;;;16.48;6.85;;;12.70;99.90;;;;;;5077358;28;20181;-62
2023/05/19 07:10:16;;;;;;;17.02;8.38;;;12.70;99.90;;;;;;5077171;28;20495;-63
2023/05/19 07:12:44;;;;;;;13.77;7.05;;;12.80;99.90;;;;;;5076911;28;20391;-63
2023/05/19 07:15:11;;;;;;;13.38;6.30;;;12.90;99.90;;;;;;5076856;28;20036;-63
2023/05/19 07:17:38;;;;;;;13.68;6.90;;;12.90;99.90;;;;;;5077413;28;20075;-63
2023/05/19 07:20:11;;;;;;;15.55;6.45;;;12.90;99.90;;;;;;5094539;28;20450;-63
2023/05/19 07:22:38;;;;;;;13.93;6.30;;;13.00;99.90;;;;;;5095232;28;20422;-63
2023/05/19 07:25:06;;;;;;;14.77;6.40;;;13.10;99.90;;;;;;5060251;28;20047;-63
2023/05/19 07:27:33;;;;;;;12.25;5.85;;;13.20;99.90;;;;;;5077168;28;20052;-63
2023/05/19 07:30:00;;;;;;;17.08;6.20;;;13.20;99.90;;;;;;5073877;28;20403;-62
2023/05/19 07:32:26;;;;;;;13.68;6.45;;;13.30;99.90;;;;;;5092576;28;20076;-63
2023/05/19 07:34:53;;;;;;;17.58;7.25;;;13.30;99.90;;;;;;5075514;28;20042;-61
2023/05/19 07:37:20;;;;;;;13.77;6.97;;;13.30;99.90;;;;;;5094119;28;20439;-61
2023/05/19 07:39:47;;;;;;;11.57;6.80;;;13.30;99.90;;;;;;5093869;28;20040;-61
2023/05/19 07:42:14;;;;;;;13.50;6.90;;;13.30;99.90;;;;;;5093870;28;20485;-61
2023/05/19 07:44:41;;;;;;;15.18;6.95;;;13.40;99.90;;;;;;5093863;28;20048;-61
2023/05/19 07:47:08;;;;;;;17.48;7.50;;;13.50;99.90;;;;;;5094173;28;20075;-61
2023/05/19 07:49:34;;;;;;;14.20;7.55;;;13.60;99.90;;;;;;5093951;28;20040;-61
2023/05/19 07:52:01;;;;;;;20.60;7.70;;;13.70;99.90;;;;;;5094056;28;20131;-61
2023/05/19 07:54:28;;;;;;;15.77;9.02;;;13.80;99.90;;;;;;5093698;28;20036;-61
2023/05/19 07:56:55;;;;;;;18.98;8.40;;;14.00;99.90;;;;;;5093960;28;20086;-61
2023/05/19 07:59:23;;;;;;;15.75;7.80;;;14.00;99.90;;;;;;5093725;28;20040;-61
2023/05/19 08:01:50;;;;;;;18.48;8.52;;;14.10;99.90;;;;;;5094052;28;20097;-61
2023/05/19 08:04:16;;;;;;;18.40;8.23;;;14.10;99.90;;;;;;5093555;28;20043;-61
2023/05/19 08:06:44;;;;;;;20.10;10.23;;;14.00;99.90;;;;;;5058889;28;20055;-62
2023/05/19 08:09:11;;;;;;;16.77;8.65;;;14.00;99.90;;;;;;5075506;28;20071;-61
2023/05/19 08:11:37;;;;;;;18.83;8.48;;;13.90;99.90;;;;;;5093256;28;20036;-61
2023/05/19 08:14:04;;;;;;;16.73;8.57;;;13.90;99.90;;;;;;5093120;28;20044;-61
2023/05/19 08:16:31;;;;;;;13.73;7.32;;;13.80;99.90;;;;;;5093430;28;20055;-61
2023/05/19 08:19:01;;;;;;;14.82;7.75;;;13.80;99.90;;;;;;5093683;28;20119;-62
2023/05/19 08:21:28;;;;;;;14.60;7.75;;;13.80;99.60;;;;;;5089949;28;20064;-61
2023/05/19 08:23:55;;;;;;;14.18;8.10;;;13.90;99.50;;;;;;5092853;28;20040;-62
2023/05/19 08:26:22;;;;;;;17.83;8.07;;;13.90;99.80;;;;;;5093184;28;20115;-61
2023/05/19 08:28:49;;;;;;;14.98;7.72;;;14.00;99.90;;;;;;5075090;28;20044;-62
2023/05/19 08:31:17;;;;;;;11.60;7.60;;;14.20;99.90;;;;;;5093238;28;20040;-61
2023/05/19 08:33:44;;;;;;;19.80;9.32;;;14.20;99.90;;;;;;5093840;28;20040;-61
2023/05/19 08:36:11;;;;;;;19.08;9.65;;;14.30;99.10;;;;;;5093990;28;20105;-61
2023/05/19 08:38:38;;;;;;;17.77;10.10;;;14.30;99.20;;;;;;5079611;28;20395;-62
2023/05/19 08:41:04;;;;;;;20.40;9.88;;;14.40;98.50;;;;;;5072598;28;20040;-62
2023/05/19 08:43:31;;;;;;;17.50;10.52;;;14.50;98.80;;;;;;5072995;28;20064;-62
2023/05/19 08:45:58;;;;;;;24.05;12.00;;;14.50;98.80;;;;;;5073047;28;20120;-62
2023/05/19 08:48:25;;;;;;;21.40;11.90;;;14.50;99.10;;;;;;5072823;28;20119;-62
2023/05/19 08:50:52;;;;;;;21.05;10.98;;;14.50;99.40;;;;;;5086860;28;20457;-62
2023/05/19 08:53:22;;;;;;;21.80;10.98;;;14.40;99.20;;;;;;5092948;28;20043;-62
2023/05/19 08:55:59;;;;;;;17.08;11.60;;;14.30;99.10;;;;;;5093434;28;20040;-62
2023/05/19 08:58:27;;;;;;;19.48;9.52;;;14.20;99.90;;;;;;5092962;28;20127;-62
2023/05/19 09:00:54;;;;;;;15.63;7.10;;;14.10;99.50;;;;;;5091998;28;20040;-62
2023/05/19 09:03:21;;;;;;;19.27;8.02;;;14.00;99.00;;;;;;5091390;28;20101;-62
2023/05/19 09:05:49;;;;;;;16.63;7.13;;;14.00;98.20;;;;;;5086782;28;20445;-62
2023/05/19 09:08:17;;;;;;;12.32;6.30;;;14.00;98.60;;;;;;5092659;28;20040;-62
2023/05/19 09:10:44;;;;;;;11.02;6.30;;;14.10;98.30;;;;;;5092656;28;20046;-62
2023/05/19 09:13:11;;;;;;;18.35;6.30;;;14.10;98.20;;;;;;5092846;28;20036;-63
2023/05/19 09:15:38;;;;;;;16.15;6.38;;;14.10;98.40;;;;;;5092856;28;20032;-61
2023/05/19 09:18:05;;;;;;;18.88;7.60;;;14.10;98.80;;;;;;5092602;28;20040;-63
2023/05/19 09:20:32;;;;;;;19.25;8.05;;;14.20;99.40;;;;;;5092123;28;20058;-63
2023/05/19 09:22:59;;;;;;;12.35;7.03;;;14.10;99.60;;;;;;5074960;28;20051;-63
2023/05/19 09:25:26;;;;;;;12.07;5.40;;;14.00;99.90;;;;;;5074066;28;20113;-63
2023/05/19 09:27:53;;;;;;;12.98;5.07;;;14.00;99.90;;;;;;5092286;28;20379;-62
2023/05/19 09:30:20;;;;;;;10.80;4.85;;;14.00;99.60;;;;;;5092580;28;20177;-61
2023/05/19 09:32:47;;;;;;;11.35;4.85;;;13.90;99.50;;;;;;5092708;28;20111;-62
2023/05/19 09:35:19;;;;;;;11.75;4.57;;;13.90;99.90;;;;;;5092789;28;20681;-62
2023/05/19 09:37:45;;;;;;;10.43;4.53;;;14.00;99.90;;;;;;5074410;28;20075;-61
2023/05/19 09:40:12;;;;;;;12.43;4.68;;;14.10;99.00;;;;;;5092791;28;20475;-62
2023/05/19 09:42:39;;;;;;;12.35;4.45;;;14.20;99.50;;;;;;5092725;28;20127;-62
2023/05/19 09:45:06;;;;;;;14.90;4.93;;;14.20;98.40;;;;;;5092857;28;20153;-62
2023/05/19 09:47:32;;;;;;;12.07;5.45;;;14.10;98.80;;;;;;5092503;28;20042;-62
2023/05/19 09:49:59;;;;;;;17.63;5.13;;;14.10;99.70;;;;;;5092553;28;20040;-62
2023/05/19 09:52:27;;;;;;;16.13;6.60;;;14.30;99.90;;;;;;5093388;28;20399;-62
2023/05/19 09:54:54;;;;;;;11.82;5.28;;;14.30;99.90;;;;;;5096194;28;20066;-62
2023/05/19 09:57:22;;;;;;;14.13;5.90;;;14.40;99.90;;;;;;5096081;28;20115;-62
2023/05/19 09:59:49;;;;;;;11.85;5.65;;;14.40;99.90;;;;;;5096008;28;20044;-62
2023/05/19 10:02:16;;;;;;;15.48;5.53;;;14.50;99.90;;;;;;5077722;28;20036;-62
2023/05/19 10:04:43;;;;;;;8.82;4.70;;;14.60;99.90;;;;;;5095900;28;20066;-61
2023/05/19 10:07:10;;;;;;;15.27;5.05;;;14.70;99.90;;;;;;5077956;28;20070;-62
2023/05/19 10:09:37;;;;;;;12.18;4.70;;;14.80;99.10;;;;;;5095904;28;20044;-62
2023/05/19 10:12:03;;;;;;;16.55;4.70;;;14.90;99.80;;;;;;5095832;28;20518;-62
2023/05/19 10:14:30;;;;;;;14.70;5.82;;;15.00;99.60;;;;;;5095832;28;20040;-62
2023/05/19 10:16:57;;;;;;;17.10;5.68;;;15.00;99.70;;;;;;5095730;28;20036;-62
2023/05/19 10:19:24;;;;;;;9.93;4.97;;;15.10;99.90;;;;;;5095605;28;20035;-62
2023/05/19 10:21:51;;;;;;;9.32;4.38;;;15.10;99.30;;;;;;5095414;28;20056;-62
2023/05/19 10:24:18;;;;;;;13.45;4.93;;;15.10;99.20;;;;;;5095751;28;20072;-63
2023/05/19 10:26:46;;;;;;;9.18;4.50;;;15.10;99.00;;;;;;5077688;28;20117;-63
2023/05/19 10:29:12;;;;;;;36.15;28.08;;;15.10;98.90;;;;;;5095264;28;20040;-62
2023/05/19 10:31:39;;;;;;;41.53;33.03;;;15.00;98.80;;;;;;5095488;28;20398;-63
2023/05/19 10:34:06;;;;;;;14.90;8.63;;;15.00;99.30;;;;;;5095339;28;20040;-63
2023/05/19 10:36:34;;;;;;;26.38;19.85;;;15.10;98.80;;;;;;5095358;28;20037;-63
2023/05/19 10:39:01;;;;;;;14.18;8.20;;;15.20;99.30;;;;;;5095491;28;20202;-63
2023/05/19 10:41:28;;;;;;;13.43;6.45;;;15.20;98.70;;;;;;5060451;28;20451;-63
2023/05/19 10:43:55;;;;;;;9.07;4.82;;;15.20;99.60;;;;;;5095169;28;20068;-63
2023/05/19 10:46:22;;;;;;;18.60;7.43;;;15.20;99.00;;;;;;5077019;28;20056;-63
2023/05/19 10:48:48;;;;;;;13.27;5.00;;;15.30;98.30;;;;;;5095379;28;20115;-62
2023/05/19 10:51:15;;;;;;;9.63;4.85;;;15.30;98.90;;;;;;5095082;28;20130;-63
2023/05/19 10:53:45;;;;;;;10.73;4.70;;;15.50;98.60;;;;;;5095052;28;20048;-63
2023/05/19 10:56:12;;;;;;;8.75;4.68;;;15.60;98.60;;;;;;5077054;28;20036;-63
2023/05/19 10:58:39;;;;;;;9.82;4.25;;;15.80;98.40;;;;;;5094541;28;20036;-63
2023/05/19 11:01:06;;;;;;;16.80;4.60;;;15.80;98.60;;;;;;5094657;28;20064;-63
2023/05/19 11:03:33;;;;;;;10.00;4.38;;;16.00;99.10;;;;;;5094266;28;20044;-63
2023/05/19 11:06:00;;;;;;;10.10;4.90;;;16.10;99.20;;;;;;5094637;28;20525;-63
2023/05/19 11:08:27;;;;;;;10.95;5.13;;;16.20;98.10;;;;;;5094832;28;20048;-63
2023/05/19 11:10:54;;;;;;;11.43;4.97;;;16.10;98.20;;;;;;5094560;28;20048;-63
2023/05/19 11:13:21;;;;;;;10.30;4.70;;;16.20;98.40;;;;;;5076250;28;20471;-64
2023/05/19 11:15:48;;;;;;;9.70;4.82;;;16.30;98.50;;;;;;5094248;28;20543;-63
2023/05/19 11:18:15;;;;;;;10.02;5.07;;;16.40;98.10;;;;;;5094005;28;20047;-63
2023/05/19 11:20:43;;;;;;;13.93;5.40;;;16.50;97.20;;;;;;5090959;28;20074;-63
2023/05/19 11:23:10;;;;;;;9.25;4.60;;;16.40;97.40;;;;;;5113402;28;20062;-64
2023/05/19 11:25:37;;;;;;;10.13;5.10;;;16.50;97.50;;;;;;5109312;28;20040;-63
2023/05/19 11:28:03;;;;;;;10.50;4.53;;;16.50;96.60;;;;;;5095106;28;20040;-64
2023/05/19 11:30:30;;;;;;;11.55;4.65;;;16.50;96.70;;;;;;5100971;28;20072;-63
2023/05/19 11:32:57;;;;;;;12.45;5.05;;;16.40;96.80;;;;;;5093003;28;20044;-63
2023/05/19 11:35:24;;;;;;;10.07;4.63;;;16.50;96.20;;;;;;5093877;28;20064;-64
2023/05/19 11:37:51;;;;;;;8.25;4.60;;;16.40;96.70;;;;;;5093287;28;20048;-63
2023/05/19 11:40:18;;;;;;;11.48;4.78;;;16.60;96.70;;;;;;5094541;28;20399;-63
2023/05/19 11:42:44;;;;;;;8.45;5.22;;;16.60;96.60;;;;;;5110597;28;20043;-63
2023/05/19 11:45:11;;;;;;;8.30;4.78;;;16.80;96.90;;;;;;5094548;28;20052;-63
2023/05/19 11:47:38;;;;;;;11.32;4.80;;;17.00;96.80;;;;;;5088154;28;20048;-63
2023/05/19 11:50:25;;;;;;;8.43;4.15;;;17.20;96.50;;;;;;5093154;28;20048;-63
2023/05/19 11:52:52;;;;;;;8.43;4.38;;;17.10;96.30;;;;;;5094270;28;20048;-63
2023/05/19 11:55:22;;;;;;;9.35;4.43;;;17.10;95.60;;;;;;5094066;28;20090;-63
2023/05/19 11:57:49;;;;;;;8.43;4.80;;;17.10;95.60;;;;;;5090536;28;20119;-63
2023/05/19 12:00:30;;;;;;;8.88;4.50;;;17.10;95.50;;;;;;5094376;28;20089;-63
2023/05/19 12:02:56;;;;;;;10.63;4.30;;;17.30;96.20;;;;;;5102536;28;20040;-63
2023/05/19 12:05:23;;;;;;;11.35;4.75;;;17.50;95.20;;;;;;5094421;28;20467;-63
2023/05/19 12:07:50;;;;;;;10.23;4.32;;;17.50;95.30;;;;;;5092964;28;20114;-62
2023/05/19 12:10:18;;;;;;;9.13;4.13;;;17.70;95.80;;;;;;5094169;28;20071;-63
2023/05/19 12:12:45;;;;;;;10.00;5.65;;;17.80;96.10;;;;;;5108458;28;20043;-62
2023/05/19 12:15:12;;;;;;;8.15;4.30;;;17.90;96.10;;;;;;5091406;28;20055;-62
2023/05/19 12:17:39;;;;;;;7.72;4.25;;;18.00;95.20;;;;;;5085813;28;20067;-63
2023/05/19 12:20:06;;;;;;;7.45;3.97;;;18.00;94.10;;;;;;5091257;28;20035;-62
2023/05/19 12:22:33;;;;;;;8.07;3.92;;;17.90;93.40;;;;;;5103459;28;20047;-63
2023/05/19 12:25:00;;;;;;;8.60;4.18;;;17.60;93.50;;;;;;5108613;28;20039;-63
2023/05/19 12:27:27;;;;;;;7.10;3.70;;;17.60;93.60;;;;;;5093887;28;20040;-64
2023/05/19 12:29:54;;;;;;;8.20;3.80;;;17.80;93.50;;;;;;5074917;28;20052;-63
2023/05/19 12:32:21;;;;;;;6.97;3.75;;;17.90;92.20;;;;;;5093716;28;20044;-62
2023/05/19 12:34:48;;;;;;;9.30;4.10;;;18.00;92.30;;;;;;5093791;28;20483;-63
2023/05/19 12:37:14;;;;;;;7.75;4.10;;;18.20;91.50;;;;;;5074973;28;20044;-63
2023/05/19 12:39:41;;;;;;;6.43;3.67;;;18.30;91.60;;;;;;5093831;28;20032;-62
2023/05/19 12:42:08;;;;;;;6.10;4.18;;;18.20;91.80;;;;;;5092924;28;20498;-62